Hovedside
METAR-TAF:

METAR-TAF

Lufthavner :

Kuwait, Kuwait

breddegrad: 29-13N, lengdegrad: 047-59E, høyde over havet: 55 m

Gjeldene værobservasjon

Denne rapporten ble laget for 48 minutter siden, klokken 15:00 UTC
Vind 11 kt fra Nord
Temperatur 18°C
Luftfuktighet 32%
Trykk 1016 hPa
Sikt: 8000 m
Skyfri himmel

METAR: OKBK 201500Z 35011KT 8000 SKC 18/01 Q1016 NOSIG

Tid: 18:48 (15:48 UTC)

Varsel

Denne rapporten ble laget for 3 timer og 46 minutter siden, klokken 12:02 UTC
Varsel gyldig fra 20. klokken 12 UTC til 21. klokken 18 UTC
Vind 12 kt fra Nord-nordvest med vindkast opp mot 22 kt
Sikt: 7000 m
Skyfri himmel
Midlertidig
fra 20. klokken 12 UTC til 20. klokken 16 UTC
Sikt: 2000 m
støvdrev

TAF: OKBK 201202Z 2012/2118 33012G22KT 7000 SKC TEMPO 2012/2016 2000 BLDU

Værobservasjoner og værvarsel for over 4000 flyplasser (METAR- og TAF-rapporter).

Tilgjengelige stasjoner er representert av de røde og gule prikkene på kartet.

Hold musepekeren over prikken for å se navnet på stasjonen.

Klikk så for å se værobservasjoner og -varsler.

For å forandre kartet kan du klikke på den grønne knappen med svart kryss for å zoome inn, på den grønne knappen med strek for å zoome ut, eller på de grønne pilene for å se tilstøtende kart.


METAR-TAF: